Katterjakk, Sweden

6:41 AM CEST on August 27, 2016 (GMT +0200)
Solpiggen | | Change Station

Elev 1623 ft 68.43 °N, 18.12 °E | Updated 27 seconds ago

Scattered Clouds
Scattered Clouds
45.9 °F
Feels Like 38 °F
N
22.1
Wind Variable Wind from East
Gusts 29.8 mph

Today
High -- | Low -- °F
--% Chance of Precip.
Yesterday
High -- | Low -- °F
Precip. -- in
Pressure 29.50 in
Visibility 6.2 miles
Clouds Few 1300 ft
Scattered Clouds 14000 ft
Windchill 38 °F
Dew Point 43 °F
Humidity 91%
Rainfall 0.00 in
Snow Depth Not available.
4:53 AM 8:41 PM
Waning Crescent, 28% visible
METAR ENEV 270350Z 35013KT 9999 FEW013 SCT140 09/07 Q0999 RMK WIND 1400FT 36024G34KT
Pressure 29.50 in
Visibility 6.2 miles
Clouds Few 1300 ft
Scattered Clouds 14000 ft
Windchill 38 °F
Dew Point 43 °F
Humidity 91%
Rainfall 0.00 in
Snow Depth Not available.
4:53 AM 8:41 PM
Waning Crescent, 28% visible
METAR ENEV 270350Z 35013KT 9999 FEW013 SCT140 09/07 Q0999 RMK WIND 1400FT 36024G34KT

10-Day Weather Forecast

×

Almanac

Astronomy

Aug. 27, 2016 Rise Set
Actual Time
Civil Twilight
Nautical Twilight
Astronomical Twilight
Moon
Length of Visible Light
Length of Day
Tomorrow will be .
, % of the Moon is Illuminated

Today's Extremes

Country Highs Country Lows

Community

WunderPhotos

Upload Photos

1,935,299 photos uploaded!

WunderBlog® & News

Nearby

Air Quality

  Air Quality AQ Index Pollutant
Not available.

Snow Depth

Station Depth Elevation

Earthquake Activity

City Distance Mag. Time & Date
Minimum magnitude displayed is 2.5.

Coastal Water Temperatures

Place Temperature

Stations

Nearby Weather Stations

Station Location Temp. Windchill Dew Point Humidity Wind Precip. Elev Updated Type